createdAt,value
2022-11-03T00:01:02.615Z,7.50
2022-11-03T00:03:30.198Z,7.60
2022-11-03T00:06:06.565Z,7.50
2022-11-03T00:08:36.801Z,7.60
2022-11-03T00:11:08.404Z,7.50
2022-11-03T00:13:36.459Z,7.50
2022-11-03T00:16:04.315Z,7.50
2022-11-03T00:18:31.930Z,7.50
2022-11-03T00:21:00.359Z,7.50
2022-11-03T00:23:31.865Z,7.50
2022-11-03T00:26:07.885Z,7.40
2022-11-03T00:28:35.600Z,7.50
2022-11-03T00:31:06.863Z,7.40
2022-11-03T00:33:34.785Z,7.40
2022-11-03T00:36:02.449Z,7.40
2022-11-03T00:38:30.627Z,7.40
2022-11-03T00:40:58.805Z,7.40
2022-11-03T00:43:28.454Z,7.40
2022-11-03T00:45:56.602Z,7.40
2022-11-03T00:48:30.400Z,7.40
2022-11-03T00:51:01.729Z,7.40
2022-11-03T00:53:29.526Z,7.40
2022-11-03T00:55:57.360Z,7.50
2022-11-03T00:58:26.354Z,7.50
2022-11-03T01:01:00.659Z,7.50
2022-11-03T01:03:28.285Z,7.50
2022-11-03T01:06:13.241Z,7.50
2022-11-03T01:08:40.829Z,7.40
2022-11-03T01:11:26.895Z,7.50
2022-11-03T01:13:54.618Z,7.50
2022-11-03T01:16:23.582Z,7.50
2022-11-03T01:18:51.451Z,7.50
2022-11-03T01:21:19.329Z,7.50
2022-11-03T01:23:47.335Z,7.60
2022-11-03T01:26:15.635Z,7.50
2022-11-03T01:28:44.048Z,7.60
2022-11-03T01:31:12.916Z,7.60
2022-11-03T01:33:42.089Z,7.80
2022-11-03T01:36:10.076Z,7.60
2022-11-03T01:38:37.904Z,7.70
2022-11-03T01:41:06.791Z,7.70
2022-11-03T01:43:34.697Z,7.60
2022-11-03T01:46:04.579Z,7.60
2022-11-03T01:48:32.642Z,7.60
2022-11-03T01:51:02.671Z,7.60
2022-11-03T01:53:30.698Z,7.60
2022-11-03T01:55:58.886Z,7.60
2022-11-03T01:58:28.405Z,7.70
2022-11-03T02:01:00.190Z,7.70
2022-11-03T02:03:29.323Z,7.80
2022-11-03T02:05:56.928Z,7.80
2022-11-03T02:08:28.792Z,7.80
2022-11-03T02:10:56.885Z,7.80
2022-11-03T02:13:26.082Z,7.80
2022-11-03T02:18:35.799Z,7.80
2022-11-03T02:21:07.391Z,7.80
2022-11-03T02:23:40.624Z,7.80
2022-11-03T02:26:10.680Z,7.80
2022-11-03T02:28:38.343Z,7.80
2022-11-03T02:31:10.950Z,7.80
2022-11-03T02:33:42.281Z,7.90
2022-11-03T02:36:12.853Z,7.80
2022-11-03T02:38:43.906Z,7.80
2022-11-03T02:41:13.282Z,7.80
2022-11-03T02:43:42.648Z,7.80
2022-11-03T02:46:12.504Z,7.80
2022-11-03T02:48:40.092Z,7.80
2022-11-03T02:51:07.708Z,7.80
2022-11-03T02:53:38.272Z,7.80
2022-11-03T02:56:06.910Z,7.90
2022-11-03T02:58:40.360Z,7.90
2022-11-03T03:01:14.994Z,7.90
2022-11-03T03:03:44.632Z,7.90
2022-11-03T03:06:14.868Z,7.90
2022-11-03T03:08:44.833Z,7.90
2022-11-03T03:11:13.379Z,8.00
2022-11-03T03:13:44.206Z,8.00
2022-11-03T03:16:13.499Z,8.00
2022-11-03T03:18:45.997Z,8.00
2022-11-03T03:21:14.511Z,8.00
2022-11-03T03:23:47.922Z,8.00
2022-11-03T03:26:18.741Z,7.90
2022-11-03T03:28:50.658Z,7.90
2022-11-03T03:31:20.143Z,7.80
2022-11-03T03:33:48.343Z,7.70
2022-11-03T03:36:18.437Z,7.70
2022-11-03T03:38:49.418Z,7.60
2022-11-03T03:41:21.865Z,7.20
2022-11-03T03:43:52.653Z,7.50
2022-11-03T03:46:22.182Z,7.50
2022-11-03T03:48:50.111Z,7.50
2022-11-03T03:51:19.199Z,7.40
2022-11-03T03:53:50.691Z,7.50
2022-11-03T03:56:19.541Z,7.40
2022-11-03T03:58:47.183Z,7.60
2022-11-03T04:01:16.199Z,7.40
2022-11-03T04:03:43.810Z,7.40
2022-11-03T04:06:11.412Z,7.40
2022-11-03T04:08:38.942Z,7.40
2022-11-03T04:11:24.366Z,7.40
2022-11-03T04:14:09.412Z,7.40
2022-11-03T04:16:55.830Z,7.40
2022-11-03T04:19:40.902Z,7.40
2022-11-03T04:22:17.219Z,7.40
2022-11-03T04:24:45.243Z,7.40
2022-11-03T04:27:27.619Z,7.40
2022-11-03T04:29:57.255Z,7.40
2022-11-03T04:32:26.867Z,7.50
2022-11-03T04:34:54.767Z,7.50
2022-11-03T04:37:22.512Z,7.50
2022-11-03T04:39:50.073Z,7.50
2022-11-03T04:42:19.498Z,7.50
2022-11-03T04:44:47.367Z,7.50
2022-11-03T04:47:15.639Z,7.60
2022-11-03T04:49:45.005Z,7.60
2022-11-03T04:52:15.252Z,7.60
2022-11-03T04:54:43.323Z,7.60
2022-11-03T04:57:13.014Z,7.60
2022-11-03T04:59:40.965Z,7.60
2022-11-03T05:02:14.066Z,7.60
2022-11-03T05:04:41.996Z,7.60
2022-11-03T05:07:19.390Z,7.60
2022-11-03T05:09:46.964Z,7.50
2022-11-03T05:12:14.590Z,7.60
2022-11-03T05:14:42.183Z,7.50
2022-11-03T05:17:16.714Z,7.50
2022-11-03T05:19:44.560Z,7.40
2022-11-03T05:22:16.753Z,7.30
2022-11-03T05:24:46.336Z,7.30
2022-11-03T05:27:17.403Z,7.20
2022-11-03T05:29:45.089Z,7.20
2022-11-03T05:32:13.938Z,7.30
2022-11-03T05:34:43.194Z,7.20
2022-11-03T05:37:26.071Z,7.20
2022-11-03T05:39:57.704Z,7.20
2022-11-03T05:42:27.108Z,7.40
2022-11-03T05:44:54.737Z,7.80
2022-11-03T05:47:23.562Z,7.40
2022-11-03T05:49:51.953Z,7.50
2022-11-03T05:52:22.584Z,7.60
2022-11-03T05:54:51.111Z,7.40
2022-11-03T05:57:19.163Z,7.60
2022-11-03T05:59:47.520Z,7.40
2022-11-03T06:02:25.231Z,7.50
2022-11-03T06:04:53.384Z,7.50
2022-11-03T06:07:24.320Z,7.50
2022-11-03T06:09:53.107Z,7.40
2022-11-03T06:12:21.686Z,7.40
2022-11-03T06:14:49.418Z,7.40
2022-11-03T06:17:21.090Z,7.40
2022-11-03T06:19:50.227Z,7.20
2022-11-03T06:22:21.639Z,7.20
2022-11-03T06:24:51.016Z,7.20
2022-11-03T06:27:21.416Z,7.20
2022-11-03T06:29:50.772Z,7.40
2022-11-03T06:32:18.887Z,7.40
2022-11-03T06:34:48.014Z,7.40
2022-11-03T06:37:23.466Z,7.60
2022-11-03T06:39:54.807Z,7.60
2022-11-03T06:42:25.571Z,7.70
2022-11-03T06:44:55.624Z,7.60
2022-11-03T06:47:24.368Z,7.80
2022-11-03T06:49:52.824Z,7.70
2022-11-03T06:52:27.870Z,7.60
2022-11-03T06:55:00.781Z,7.80
2022-11-03T06:57:28.708Z,8.00
2022-11-03T07:00:13.432Z,7.90
2022-11-03T07:02:51.635Z,7.90
2022-11-03T07:05:21.696Z,8.00
2022-11-03T07:07:49.310Z,8.00
2022-11-03T07:10:18.634Z,8.10
2022-11-03T07:12:46.414Z,8.10
2022-11-03T07:15:28.722Z,8.10
2022-11-03T07:17:59.543Z,8.10
2022-11-03T07:20:27.655Z,8.10
2022-11-03T07:22:56.245Z,8.20
2022-11-03T07:25:25.205Z,8.20
2022-11-03T07:27:54.237Z,8.30
2022-11-03T07:30:22.610Z,8.30
2022-11-03T07:32:52.057Z,8.40
2022-11-03T07:35:47.053Z,8.50
2022-11-03T07:38:19.489Z,8.50
2022-11-03T07:40:48.990Z,8.50
2022-11-03T07:43:18.934Z,8.60
2022-11-03T07:45:49.784Z,8.60
2022-11-03T07:48:21.878Z,8.60
2022-11-03T07:50:49.952Z,8.70
2022-11-03T07:53:25.651Z,8.70
2022-11-03T07:55:56.883Z,8.80
2022-11-03T07:58:26.542Z,8.70
2022-11-03T08:00:57.585Z,8.80
2022-11-03T08:03:33.916Z,8.70
2022-11-03T08:06:03.716Z,8.80
2022-11-03T08:08:33.821Z,8.80
2022-11-03T08:11:02.835Z,8.90
2022-11-03T08:13:31.016Z,8.90
2022-11-03T08:15:58.710Z,9.00
2022-11-03T08:18:26.796Z,9.00
2022-11-03T08:20:54.421Z,9.00
2022-11-03T08:23:26.339Z,8.90
2022-11-03T08:25:54.336Z,9.10
2022-11-03T08:28:23.307Z,9.20
2022-11-03T08:30:50.946Z,9.20
2022-11-03T08:33:18.643Z,9.30
2022-11-03T08:35:46.446Z,9.40
2022-11-03T08:38:14.019Z,9.50
2022-11-03T08:40:41.839Z,9.70
2022-11-03T08:43:09.498Z,9.40
2022-11-03T08:45:38.419Z,9.80
2022-11-03T08:48:06.643Z,9.80
2022-11-03T08:50:34.357Z,9.90
2022-11-03T08:53:02.109Z,10.30
2022-11-03T08:55:29.688Z,10.00
2022-11-03T08:57:57.320Z,10.20
2022-11-03T09:00:24.982Z,10.30
2022-11-03T09:02:54.004Z,10.50
2022-11-03T09:05:21.598Z,10.50
2022-11-03T09:10:39.706Z,10.70
2022-11-03T09:13:10.121Z,10.70
2022-11-03T09:15:37.806Z,10.80
2022-11-03T09:18:07.134Z,10.80
2022-11-03T09:20:35.088Z,10.90
2022-11-03T09:23:02.788Z,11.00
2022-11-03T09:25:30.601Z,11.00
2022-11-03T09:27:58.393Z,11.10
2022-11-03T09:30:26.217Z,11.10
2022-11-03T09:32:53.891Z,11.20
2022-11-03T09:35:22.802Z,11.30
2022-11-03T09:37:50.379Z,11.20
2022-11-03T09:40:18.502Z,11.30
2022-11-03T09:42:46.188Z,11.40
2022-11-03T09:45:13.849Z,11.60
2022-11-03T09:47:42.264Z,11.50
2022-11-03T09:50:14.190Z,11.50
2022-11-03T09:52:47.379Z,11.60
2022-11-03T09:55:19.852Z,11.60
2022-11-03T09:57:47.758Z,11.80
2022-11-03T10:00:18.803Z,11.80
2022-11-03T10:02:46.866Z,11.90
2022-11-03T10:07:45.472Z,12.10
2022-11-03T10:10:17.061Z,12.10
2022-11-03T10:12:44.848Z,12.20
2022-11-03T10:15:15.639Z,12.30
2022-11-03T10:17:43.671Z,12.30
2022-11-03T10:20:12.206Z,12.40
2022-11-03T10:22:41.358Z,12.50
2022-11-03T10:25:27.962Z,12.50
2022-11-03T10:28:14.666Z,12.50
2022-11-03T10:31:10.196Z,12.60
2022-11-03T10:33:38.150Z,12.60
2022-11-03T10:36:06.727Z,12.70
2022-11-03T10:38:35.164Z,12.80
2022-11-03T10:41:11.321Z,12.80
2022-11-03T10:43:40.650Z,12.90
2022-11-03T10:46:29.674Z,13.00
2022-11-03T10:49:04.400Z,13.00
2022-11-03T10:51:32.414Z,13.00
2022-11-03T10:54:00.112Z,13.00
2022-11-03T10:56:27.898Z,13.10
2022-11-03T11:01:26.430Z,13.20
2022-11-03T11:03:55.238Z,13.20
2022-11-03T11:06:25.476Z,13.40
2022-11-03T11:08:59.771Z,13.50
2022-11-03T11:11:28.122Z,13.50
2022-11-03T11:14:11.176Z,13.60
2022-11-03T11:16:50.679Z,13.60
2022-11-03T11:19:18.365Z,13.70
2022-11-03T11:21:58.782Z,13.70
2022-11-03T11:24:45.302Z,13.70
2022-11-03T11:27:27.841Z,13.80
2022-11-03T11:29:55.469Z,13.80
2022-11-03T11:32:50.150Z,13.80
2022-11-03T11:35:39.373Z,13.80
2022-11-03T11:38:25.741Z,13.90
2022-11-03T11:40:53.644Z,13.90
2022-11-03T11:43:26.676Z,13.80
2022-11-03T11:46:24.425Z,13.80
2022-11-03T11:48:55.860Z,13.90
2022-11-03T11:51:27.335Z,13.80
2022-11-03T11:54:16.791Z,13.90
2022-11-03T11:56:43.617Z,13.90
2022-11-03T11:59:21.519Z,13.90
2022-11-03T12:01:53.200Z,13.80
2022-11-03T12:04:23.350Z,13.90
2022-11-03T12:06:52.310Z,13.90
2022-11-03T12:09:22.018Z,14.00
2022-11-03T12:11:55.336Z,14.10
2022-11-03T12:14:24.242Z,14.20
2022-11-03T12:16:51.921Z,14.30
2022-11-03T12:19:39.223Z,14.20
2022-11-03T12:22:09.042Z,14.30
2022-11-03T12:24:53.143Z,14.30
2022-11-03T12:27:40.584Z,14.30
2022-11-03T12:30:12.748Z,14.20
2022-11-03T12:32:40.469Z,14.20
2022-11-03T12:35:09.087Z,14.20
2022-11-03T12:37:38.073Z,14.20
2022-11-03T12:40:06.283Z,14.30
2022-11-03T12:42:33.910Z,14.40
2022-11-03T12:45:01.823Z,14.40
2022-11-03T12:47:29.523Z,14.50
2022-11-03T12:49:57.099Z,14.50
2022-11-03T12:52:24.713Z,14.50
2022-11-03T12:54:53.587Z,14.50
2022-11-03T12:57:21.208Z,14.50
2022-11-03T12:59:48.934Z,14.50
2022-11-03T13:02:16.981Z,14.50
2022-11-03T13:04:44.702Z,14.40
2022-11-03T13:07:12.407Z,14.40
2022-11-03T13:09:40.113Z,14.40
2022-11-03T13:12:30.528Z,14.30
2022-11-03T13:14:58.214Z,14.30
2022-11-03T13:17:31.758Z,14.30
2022-11-03T13:19:59.845Z,14.30
2022-11-03T13:22:28.871Z,14.30
2022-11-03T13:24:56.632Z,14.30
2022-11-03T13:27:25.526Z,14.40
2022-11-03T13:29:55.324Z,14.40
2022-11-03T13:32:23.174Z,14.40
2022-11-03T13:34:50.730Z,14.40
2022-11-03T13:37:18.285Z,14.30
2022-11-03T13:39:46.094Z,14.40
2022-11-03T13:42:13.753Z,14.40
2022-11-03T13:44:42.778Z,14.30
2022-11-03T13:47:11.905Z,14.30
2022-11-03T13:52:27.648Z,14.30
2022-11-03T14:00:33.429Z,13.90
2022-11-03T14:05:48.991Z,13.80
2022-11-03T14:08:16.573Z,13.80
2022-11-03T14:10:45.335Z,13.70
2022-11-03T14:13:12.224Z,13.70
2022-11-03T14:15:41.173Z,13.80
2022-11-03T14:18:08.771Z,13.80
2022-11-03T14:20:36.561Z,13.70
2022-11-03T14:23:04.376Z,13.80
2022-11-03T14:25:32.188Z,13.70
2022-11-03T14:27:59.904Z,13.70
2022-11-03T14:30:27.499Z,13.70
2022-11-03T14:33:06.923Z,13.60
2022-11-03T14:35:34.798Z,13.70
2022-11-03T14:38:02.706Z,13.70
2022-11-03T14:41:00.524Z,13.60
2022-11-03T14:43:34.655Z,13.70
2022-11-03T14:46:02.807Z,13.60
2022-11-03T14:48:31.889Z,13.70
2022-11-03T14:50:59.664Z,13.60
2022-11-03T14:53:31.568Z,13.50
2022-11-03T14:55:59.223Z,13.50
2022-11-03T14:58:26.928Z,13.50
2022-11-03T15:00:54.614Z,13.50
2022-11-03T15:03:22.285Z,13.50
2022-11-03T15:05:54.355Z,13.50
2022-11-03T15:08:22.859Z,13.50
2022-11-03T15:10:50.573Z,13.40
2022-11-03T15:13:18.298Z,13.40
2022-11-03T15:15:45.971Z,13.50
2022-11-03T15:18:13.735Z,13.40
2022-11-03T15:20:41.381Z,13.40
2022-11-03T15:25:57.914Z,13.30
2022-11-03T15:28:25.552Z,13.20
2022-11-03T15:30:53.171Z,13.20
2022-11-03T15:33:20.953Z,13.20
2022-11-03T15:35:48.541Z,13.10
2022-11-03T15:38:17.513Z,13.10
2022-11-03T15:40:45.062Z,13.10
2022-11-03T15:43:12.873Z,13.10
2022-11-03T15:45:40.827Z,13.00
2022-11-03T15:48:08.647Z,12.90
2022-11-03T15:50:36.436Z,12.80
2022-11-03T15:53:04.024Z,12.80
2022-11-03T15:55:32.879Z,12.80
2022-11-03T15:58:00.507Z,12.80
2022-11-03T16:00:28.110Z,12.80
2022-11-03T16:02:55.801Z,12.80
2022-11-03T16:05:25.355Z,12.90
2022-11-03T16:07:53.077Z,12.80
2022-11-03T16:10:20.648Z,12.80
2022-11-03T16:12:49.555Z,12.80
2022-11-03T16:15:17.138Z,12.80
2022-11-03T16:17:45.785Z,12.80
2022-11-03T16:20:13.735Z,12.70
2022-11-03T16:22:41.323Z,12.80
2022-11-03T16:25:12.397Z,12.70
2022-11-03T16:27:41.820Z,12.70
2022-11-03T16:30:12.534Z,12.70
2022-11-03T16:32:40.389Z,12.70
2022-11-03T16:35:08.534Z,12.70
2022-11-03T16:37:36.123Z,12.60
2022-11-03T16:40:03.836Z,12.60
2022-11-03T16:42:38.064Z,12.50
2022-11-03T16:45:07.358Z,12.50
2022-11-03T16:47:36.307Z,12.50
2022-11-03T16:50:03.948Z,12.60
2022-11-03T16:52:31.650Z,12.50
2022-11-03T16:54:59.439Z,12.50
2022-11-03T16:57:27.754Z,12.60
2022-11-03T16:59:58.540Z,12.50
2022-11-03T17:02:29.256Z,12.50
2022-11-03T17:04:59.491Z,12.50
2022-11-03T17:07:27.070Z,12.60
2022-11-03T17:09:54.887Z,12.60
2022-11-03T17:12:22.468Z,12.40
2022-11-03T17:14:52.565Z,12.50
2022-11-03T17:17:23.399Z,12.70
2022-11-03T17:19:51.255Z,12.60
2022-11-03T17:22:22.077Z,12.80
2022-11-03T17:24:49.751Z,12.60
2022-11-03T17:27:18.943Z,12.80
2022-11-03T17:29:49.245Z,12.80
2022-11-03T17:32:19.617Z,12.60
2022-11-03T17:34:47.376Z,12.60
2022-11-03T17:37:15.257Z,12.60
2022-11-03T17:39:45.386Z,12.50
2022-11-03T17:42:15.673Z,12.50
2022-11-03T17:44:44.027Z,12.40
2022-11-03T17:47:11.688Z,12.40
2022-11-03T17:49:39.317Z,12.40
2022-11-03T17:52:07.327Z,12.30
2022-11-03T17:54:37.759Z,12.20
2022-11-03T17:57:06.766Z,12.20
2022-11-03T17:59:34.468Z,12.20
2022-11-03T18:02:03.144Z,12.10
2022-11-03T18:04:31.139Z,12.20
2022-11-03T18:06:59.192Z,12.20
2022-11-03T18:09:26.771Z,12.10
2022-11-03T18:12:12.330Z,12.10
2022-11-03T18:14:41.336Z,12.00
2022-11-03T18:17:09.423Z,12.10
2022-11-03T18:19:37.168Z,12.00
2022-11-03T18:22:05.326Z,11.90
2022-11-03T18:24:32.897Z,11.90
2022-11-03T18:27:00.661Z,11.90
2022-11-03T18:29:28.249Z,11.90
2022-11-03T18:31:57.967Z,11.70
2022-11-03T18:34:27.102Z,11.70
2022-11-03T18:36:55.301Z,11.80
2022-11-03T18:39:23.822Z,11.70
2022-11-03T18:41:51.521Z,11.70
2022-11-03T18:44:20.276Z,11.60
2022-11-03T18:46:49.116Z,11.60
2022-11-03T18:49:18.425Z,11.60
2022-11-03T18:51:48.221Z,11.60
2022-11-03T18:56:50.101Z,11.50
2022-11-03T18:59:20.869Z,11.60
2022-11-03T19:01:48.582Z,11.50
2022-11-03T19:04:17.798Z,11.50
2022-11-03T19:06:46.488Z,11.50
2022-11-03T19:09:16.697Z,11.50
2022-11-03T19:11:44.692Z,11.40
2022-11-03T19:14:14.810Z,11.40
2022-11-03T19:16:55.676Z,11.40
2022-11-03T19:19:31.460Z,11.40
2022-11-03T19:21:59.105Z,11.40
2022-11-03T19:24:26.754Z,11.40
2022-11-03T19:30:18.078Z,11.40
2022-11-03T19:32:46.622Z,11.40
2022-11-03T19:35:20.339Z,11.30
2022-11-03T19:37:49.455Z,11.40
2022-11-03T19:40:18.062Z,11.40
2022-11-03T19:42:45.365Z,11.40
2022-11-03T19:45:14.792Z,11.40
2022-11-03T19:48:10.639Z,11.40
2022-11-03T19:50:36.977Z,11.40
2022-11-03T19:53:06.779Z,11.40
2022-11-03T19:55:35.528Z,11.50
2022-11-03T19:58:03.650Z,11.30
2022-11-03T20:00:32.651Z,11.30
2022-11-03T20:03:00.182Z,11.30
2022-11-03T20:05:27.774Z,11.40
2022-11-03T20:07:58.165Z,11.30
2022-11-03T20:10:25.852Z,11.30
2022-11-03T20:12:53.977Z,11.40
2022-11-03T20:15:22.507Z,11.30
2022-11-03T20:17:51.051Z,11.50
2022-11-03T20:20:19.650Z,11.30
2022-11-03T20:22:48.889Z,11.30
2022-11-03T20:25:22.921Z,11.40
2022-11-03T20:27:51.037Z,11.40
2022-11-03T20:30:19.977Z,11.40
2022-11-03T20:32:48.305Z,11.40
2022-11-03T20:35:18.755Z,11.40
2022-11-03T20:37:51.073Z,11.40
2022-11-03T20:40:20.413Z,11.30
2022-11-03T20:42:50.914Z,11.40
2022-11-03T20:45:19.536Z,11.40
2022-11-03T20:47:48.407Z,11.40
2022-11-03T20:50:17.603Z,11.30
2022-11-03T20:52:46.704Z,11.30
2022-11-03T20:55:15.515Z,11.30
2022-11-03T20:57:43.807Z,11.30
2022-11-03T21:00:15.641Z,11.20
2022-11-03T21:02:43.752Z,11.20
2022-11-03T21:05:15.653Z,11.10
2022-11-03T21:07:43.656Z,11.10
2022-11-03T21:10:12.988Z,11.20
2022-11-03T21:12:42.319Z,11.20
2022-11-03T21:15:35.768Z,11.30
2022-11-03T21:18:27.445Z,11.30
2022-11-03T21:20:55.145Z,11.30
2022-11-03T21:23:24.205Z,11.40
2022-11-03T21:25:51.755Z,11.40
2022-11-03T21:28:20.196Z,11.40
2022-11-03T21:30:50.298Z,11.40
2022-11-03T21:33:18.286Z,11.40
2022-11-03T21:35:46.410Z,11.30
2022-11-03T21:38:14.664Z,11.30
2022-11-03T21:40:43.985Z,11.40
2022-11-03T21:43:29.262Z,11.40
2022-11-03T21:46:04.871Z,11.40
2022-11-03T21:48:49.803Z,11.50
2022-11-03T21:51:18.267Z,11.50
2022-11-03T21:53:46.020Z,11.50
2022-11-03T21:56:15.656Z,11.50
2022-11-03T21:58:43.752Z,11.50
2022-11-03T22:01:12.816Z,11.60
2022-11-03T22:03:41.174Z,11.50
2022-11-03T22:06:10.119Z,11.50
2022-11-03T22:08:38.694Z,11.50
2022-11-03T22:11:24.985Z,11.50
2022-11-03T22:13:54.651Z,11.50
2022-11-03T22:16:37.889Z,11.40
2022-11-03T22:19:22.625Z,11.40
2022-11-03T22:22:08.154Z,11.50
2022-11-03T22:24:53.731Z,11.40
2022-11-03T22:27:21.782Z,11.40
2022-11-03T22:30:07.080Z,11.40
2022-11-03T22:32:36.031Z,11.40
2022-11-03T22:35:21.364Z,11.50
2022-11-03T22:37:49.299Z,11.40
2022-11-03T22:40:34.296Z,11.50
2022-11-03T22:43:19.399Z,11.50
2022-11-03T22:45:54.869Z,11.50
2022-11-03T22:48:24.895Z,11.50
2022-11-03T22:51:02.979Z,11.50
2022-11-03T22:53:49.069Z,11.50
2022-11-03T22:56:17.131Z,11.60
2022-11-03T22:58:44.826Z,11.60
2022-11-03T23:01:14.044Z,11.60
2022-11-03T23:03:44.064Z,11.60
2022-11-03T23:06:12.997Z,11.50
2022-11-03T23:08:41.393Z,11.50
2022-11-03T23:11:09.997Z,11.50
2022-11-03T23:13:37.612Z,11.60
2022-11-03T23:16:10.099Z,11.50
2022-11-03T23:18:55.555Z,11.50
2022-11-03T23:21:24.509Z,11.50
2022-11-03T23:24:09.575Z,11.50
2022-11-03T23:26:37.205Z,11.50
2022-11-03T23:29:06.066Z,11.50
2022-11-03T23:31:33.653Z,11.50
2022-11-03T23:34:01.304Z,11.50
2022-11-03T23:36:30.234Z,11.50
2022-11-03T23:38:58.081Z,11.50
2022-11-03T23:41:26.124Z,11.40
2022-11-03T23:43:54.000Z,11.50
2022-11-03T23:46:40.325Z,11.40
2022-11-03T23:49:08.486Z,11.40
2022-11-03T23:51:37.904Z,11.40
2022-11-03T23:54:06.591Z,11.30
2022-11-03T23:56:53.146Z,11.30
2022-11-03T23:59:21.016Z,11.30
